Time;durP1;ratioP1;P1;durP2;ratioP2;P2;SDS_P1;SDS_P2;PMS_P1;PMS_P2;Temp;Humidity;BMP_temperature;BMP_pressure;BME280_temperature;BME280_humidity;BME280_pressure;Samples;Min_cycle;Max_cycle;Signal;HPM_P1;HPM_P2
2022/03/02 00:01:21;;;;;;;22.50;9.45;;;;;;;-1.34;nan;101312.19;5008859;28;20476;-73
2022/03/02 00:03:46;;;;;;;24.10;9.65;;;;;;;-1.57;nan;101277.91;5010132;28;20034;-72
2022/03/02 00:06:11;;;;;;;32.88;10.82;;;;;;;-1.22;nan;101339.66;5013648;28;20295;-72
2022/03/02 00:08:37;;;;;;;46.05;12.25;;;;;;;-1.23;nan;101340.56;5010194;28;20034;-74
2022/03/02 00:11:03;;;;;;;25.75;10.13;;;;;;;-1.36;nan;101319.28;5009559;28;20084;-73
2022/03/02 00:13:29;;;;;;;26.42;9.70;;;;;;;-1.26;nan;101324.53;4988839;28;20030;-73
2022/03/02 00:15:54;;;;;;;35.63;11.60;;;;;;;-1.35;nan;101318.31;5009642;28;20427;-72
2022/03/02 00:18:20;;;;;;;19.83;9.15;;;;;;;-1.40;nan;101304.97;5010690;28;20069;-72
2022/03/02 00:20:45;;;;;;;25.58;9.25;;;;;;;-1.44;nan;101306.97;4992954;28;20100;-73
2022/03/02 00:23:11;;;;;;;38.20;12.80;;;;;;;-1.56;nan;101298.44;4996492;28;20076;-74
2022/03/02 00:25:36;;;;;;;48.85;13.98;;;;;;;-1.57;nan;101291.63;5005877;28;20061;-74
2022/03/02 00:28:02;;;;;;;21.77;9.35;;;;;;;-1.61;nan;101286.84;5007539;28;20405;-73
2022/03/02 00:30:28;;;;;;;28.27;9.20;;;;;;;-1.47;nan;101311.56;4988968;28;20046;-73
2022/03/02 00:32:55;;;;;;;28.77;10.38;;;;;;;-1.50;nan;101289.38;5010853;28;20041;-73
2022/03/02 00:35:20;;;;;;;25.23;9.93;;;;;;;-1.55;nan;101289.75;4995818;28;20576;-72
2022/03/02 00:37:46;;;;;;;37.33;11.07;;;;;;;-1.57;nan;101283.91;5008790;28;20041;-72
2022/03/02 00:40:13;;;;;;;52.65;14.55;;;;;;;-1.59;nan;101283.19;5011531;28;20081;-72
2022/03/02 00:42:38;;;;;;;59.03;14.80;;;;;;;-1.81;nan;101254.88;5010872;28;20645;-73
2022/03/02 00:45:04;;;;;;;43.72;12.82;;;;;;;-1.55;nan;101296.69;5008608;28;20124;-73
2022/03/02 00:47:30;;;;;;;77.05;16.63;;;;;;;-2.26;nan;101200.84;4990286;28;20034;-72
2022/03/02 00:49:55;;;;;;;37.10;11.93;;;;;;;-1.70;nan;101267.72;5004137;28;20030;-72
2022/03/02 00:52:22;;;;;;;60.47;15.30;;;;;;;-1.67;nan;101275.25;5006477;28;20506;-72
2022/03/02 00:54:47;;;;;;;55.70;14.32;;;;;;;-1.55;nan;101297.50;5007290;28;20058;-72
2022/03/02 00:57:13;;;;;;;43.53;12.63;;;;;;;-1.57;nan;101291.63;5015200;28;20476;-72
2022/03/02 00:59:38;;;;;;;60.30;14.70;;;;;;;-1.61;nan;101292.00;4984816;28;20038;-71
2022/03/02 01:02:04;;;;;;;66.72;17.25;;;;;;;-1.67;nan;101282.19;5007286;28;20379;-72
2022/03/02 01:04:30;;;;;;;70.78;18.45;;;;;;;-1.76;nan;101269.06;5009002;28;20038;-73
2022/03/02 01:06:55;;;;;;;51.70;15.82;;;;;;;-1.79;nan;101271.91;5003360;28;20435;-72
2022/03/02 01:09:21;;;;;;;30.95;10.73;;;;;;;-1.72;nan;101292.88;4991676;28;20042;-72
2022/03/02 01:11:46;;;;;;;52.25;14.85;;;;;;;-1.83;nan;101274.84;4990518;28;20038;-72
2022/03/02 01:14:12;;;;;;;54.80;15.05;;;;;;;-1.87;nan;101261.34;4989354;28;20030;-72
2022/03/02 01:16:37;;;;;;;45.75;12.93;;;;;;;-1.83;nan;101265.31;4983498;28;20502;-73
2022/03/02 01:19:03;;;;;;;63.65;16.48;;;;;;;-1.91;nan;101252.22;4984971;28;20030;-71
2022/03/02 01:21:29;;;;;;;36.45;12.43;;;;;;;-1.94;nan;101240.38;4975613;28;20120;-72
2022/03/02 01:23:56;;;;;;;27.73;10.38;;;;;;;-1.93;nan;101251.53;4989836;28;20472;-71
2022/03/02 01:26:24;;;;;;;23.90;9.98;;;;;;;-1.81;nan;101257.47;4987923;28;20129;-72
2022/03/02 01:28:50;;;;;;;25.88;9.65;;;;;;;-1.97;nan;101239.81;4989654;28;20110;-73
2022/03/02 01:31:16;;;;;;;36.25;11.90;;;;;;;-1.98;nan;101245.91;4998161;28;20034;-71
2022/03/02 01:33:41;;;;;;;34.65;11.38;;;;;;;-2.02;nan;101235.00;4991239;28;20030;-71
2022/03/02 01:36:06;;;;;;;24.73;9.52;;;;;;;-2.02;nan;101239.34;4989611;28;20070;-72
2022/03/02 01:38:32;;;;;;;23.50;9.25;;;;;;;-2.07;nan;101231.16;4997099;28;20054;-72
2022/03/02 01:40:57;;;;;;;19.15;8.73;;;;;;;-2.03;nan;101242.88;4996061;28;20052;-72
2022/03/02 01:43:27;;;;;;;22.02;8.52;;;;;;;-2.10;nan;101247.72;4984315;28;20053;-71
2022/03/02 01:45:52;;;;;;;;;;;;;;;-2.04;nan;101248.97;4978591;28;20038;-72
2022/03/02 01:48:17;;;;;;;20.67;8.60;;;;;;;-2.28;nan;101216.41;4985487;28;20365;-72
2022/03/02 01:50:43;;;;;;;21.85;9.02;;;;;;;-2.07;nan;101251.81;4985483;28;20070;-72
2022/03/02 01:53:08;;;;;;;19.10;8.85;;;;;;;-2.09;nan;101243.34;4988124;28;20034;-72
2022/03/02 01:55:34;;;;;;;19.33;7.85;;;;;;;-2.14;nan;101241.13;4985555;28;20034;-71
2022/03/02 01:57:59;;;;;;;20.88;8.30;;;;;;;-2.18;nan;101234.56;4989896;28;20038;-72
2022/03/02 02:00:25;;;;;;;22.05;8.50;;;;;;;-2.11;nan;101256.38;4988014;28;20034;-70
2022/03/02 02:02:51;;;;;;;20.23;8.80;;;;;;;-2.21;nan;101247.72;4977303;28;20058;-71
2022/03/02 02:05:17;;;;;;;17.15;8.02;;;;;;;-2.27;nan;101243.88;4984360;28;20022;-72
2022/03/02 02:07:43;;;;;;;18.25;8.52;;;;;;;-2.19;nan;101249.25;4994063;28;20381;-72
2022/03/02 02:10:10;;;;;;;16.90;8.00;;;;;;;-2.25;nan;101239.41;5002463;28;20038;-71
2022/03/02 02:12:36;;;;;;;18.85;8.20;;;;;;;-2.36;nan;101221.38;5005410;28;20033;-71
2022/03/02 02:15:03;;;;;;;20.90;8.40;;;;;;;-2.73;nan;101171.84;4997999;28;20033;-72
2022/03/02 02:17:28;;;;;;;16.58;7.90;;;;;;;-2.56;nan;101189.41;5005155;28;20116;-71
2022/03/02 02:19:54;;;;;;;23.42;8.32;;;;;;;-2.36;nan;101231.69;4998657;28;20094;-72
2022/03/02 02:22:19;;;;;;;17.23;8.15;;;;;;;-2.52;nan;101198.53;4992741;28;20125;-70
2022/03/02 02:24:45;;;;;;;18.35;7.95;;;;;;;-2.39;nan;101219.03;5003568;28;20046;-73
2022/03/02 02:27:13;;;;;;;16.73;7.55;;;;;;;-2.34;nan;101223.84;4996604;28;20463;-71
2022/03/02 02:29:38;;;;;;;18.63;7.68;;;;;;;-2.53;nan;101188.38;5008440;28;20041;-71
2022/03/02 02:32:05;;;;;;;21.55;8.20;;;;;;;-2.49;nan;101189.75;4999260;28;20033;-70
2022/03/02 02:34:30;;;;;;;17.77;8.32;;;;;;;-2.46;nan;101194.69;5000477;28;20208;-72
2022/03/02 02:36:57;;;;;;;15.63;7.65;;;;;;;-2.61;nan;101178.63;5014626;28;20114;-72
2022/03/02 02:39:24;;;;;;;19.20;8.65;;;;;;;-2.35;nan;101215.25;5010851;28;20107;-70
2022/03/02 02:41:50;;;;;;;18.10;8.10;;;;;;;-2.48;nan;101204.28;5009427;28;20615;-71
2022/03/02 02:44:15;;;;;;;23.85;9.13;;;;;;;-2.54;nan;101200.41;5011860;28;20038;-70
2022/03/02 02:46:42;;;;;;;18.65;8.25;;;;;;;-2.61;nan;101194.09;5011210;28;20497;-71
2022/03/02 02:49:08;;;;;;;21.95;8.88;;;;;;;-2.66;nan;101183.31;4990783;28;20480;-71
2022/03/02 02:51:33;;;;;;;20.55;8.85;;;;;;;-2.81;nan;101162.13;5005961;28;20069;-70
2022/03/02 02:53:59;;;;;;;21.58;8.65;;;;;;;-2.61;nan;101207.81;5013139;28;20137;-71
2022/03/02 02:56:24;;;;;;;16.45;8.10;;;;;;;-2.67;nan;101197.97;4993391;28;20125;-71
2022/03/02 02:58:50;;;;;;;18.85;7.65;;;;;;;-2.66;nan;101185.91;5003896;28;20115;-71
2022/03/02 03:01:15;;;;;;;19.20;8.10;;;;;;;-2.61;nan;101199.25;5007630;28;20038;-72
2022/03/02 03:03:41;;;;;;;18.38;7.97;;;;;;;-2.61;nan;101201.81;5002587;28;20030;-71
2022/03/02 03:06:06;;;;;;;22.55;8.32;;;;;;;-2.69;nan;101196.47;5000498;28;20042;-72
2022/03/02 03:08:31;;;;;;;23.88;9.05;;;;;;;-2.69;nan;101193.88;5005644;28;20046;-71
2022/03/02 03:10:57;;;;;;;23.73;10.10;;;;;;;-2.73;nan;101200.19;5007323;28;20129;-72
2022/03/02 03:13:23;;;;;;;19.30;9.60;;;;;;;-2.69;nan;101204.19;4992416;28;20034;-71
2022/03/02 03:15:49;;;;;;;23.88;8.85;;;;;;;-2.79;nan;101191.19;5007255;28;20099;-71
2022/03/02 03:18:14;;;;;;;20.63;8.30;;;;;;;-2.83;nan;101208.63;4992615;28;20042;-71
2022/03/02 03:20:40;;;;;;;18.25;8.35;;;;;;;-2.93;nan;101181.94;5009926;28;20103;-72
2022/03/02 03:23:06;;;;;;;18.85;8.05;;;;;;;-2.83;nan;101194.94;4997511;28;20104;-71
2022/03/02 03:25:32;;;;;;;20.42;8.15;;;;;;;-2.79;nan;101188.63;5003351;28;20559;-72
2022/03/02 03:27:57;;;;;;;20.33;9.23;;;;;;;-3.03;nan;101163.78;5010244;28;20166;-71
2022/03/02 03:30:24;;;;;;;21.63;8.73;;;;;;;-2.95;nan;101178.66;5009708;28;20034;-74
2022/03/02 03:32:50;;;;;;;20.75;8.35;;;;;;;-3.02;nan;101169.75;5000250;28;20038;-71
2022/03/02 03:35:19;;;;;;;28.75;9.13;;;;;;;-2.83;nan;101192.38;4988844;28;20399;-69
2022/03/02 03:37:45;;;;;;;20.27;9.03;;;;;;;-3.07;nan;101159.00;5008412;28;20038;-70
2022/03/02 03:40:13;;;;;;;22.55;9.02;;;;;;;-2.90;nan;101197.16;5000678;28;20535;-70
2022/03/02 03:42:39;;;;;;;22.63;9.25;;;;;;;-2.87;nan;101191.78;4989219;28;20033;-73
2022/03/02 03:45:06;;;;;;;26.38;9.80;;;;;;;-2.89;nan;101192.84;5007367;28;20034;-73
2022/03/02 03:47:32;;;;;;;22.77;9.35;;;;;;;-2.95;nan;101186.38;5010128;28;20061;-72
2022/03/02 03:49:57;;;;;;;22.35;9.25;;;;;;;-2.91;nan;101187.00;5001789;28;20034;-71
2022/03/02 03:52:23;;;;;;;27.08;9.75;;;;;;;-2.80;nan;101198.13;5000483;28;20041;-72
2022/03/02 03:54:48;;;;;;;26.58;9.88;;;;;;;-2.87;nan;101183.25;4988253;28;20119;-73
2022/03/02 03:57:13;;;;;;;23.40;9.52;;;;;;;-2.79;nan;101192.00;5008036;28;20029;-70
2022/03/02 03:59:39;;;;;;;25.60;10.70;;;;;;;-3.01;nan;101163.69;4992165;28;20037;-70
2022/03/02 04:02:04;;;;;;;23.45;10.00;;;;;;;-2.93;nan;101183.72;5006906;28;20538;-73
2022/03/02 04:04:30;;;;;;;25.27;9.23;;;;;;;-3.25;nan;101151.75;5008292;28;20030;-72
2022/03/02 04:06:55;;;;;;;26.13;10.77;;;;;;;-3.12;nan;101168.81;5020652;28;20045;-72
2022/03/02 04:09:21;;;;;;;23.92;10.05;;;;;;;-3.06;nan;101189.00;4986216;28;20061;-71
2022/03/02 04:11:46;;;;;;;22.73;9.80;;;;;;;-3.27;nan;101174.22;5003381;28;20486;-72
2022/03/02 04:14:12;;;;;;;24.88;10.50;;;;;;;-3.19;nan;101180.53;4992050;28;20029;-71
2022/03/02 04:16:38;;;;;;;21.23;9.43;;;;;;;-3.21;nan;101167.75;5003276;28;20105;-72
2022/03/02 04:19:06;;;;;;;21.10;9.65;;;;;;;-3.24;nan;101173.97;4997123;28;20034;-72
2022/03/02 04:21:32;;;;;;;22.58;9.60;;;;;;;-3.29;nan;101167.53;4991992;28;20090;-73
2022/03/02 04:23:58;;;;;;;20.20;9.57;;;;;;;-3.34;nan;101159.34;5010657;28;20061;-71
2022/03/02 04:26:23;;;;;;;26.70;9.55;;;;;;;-3.47;nan;101149.97;4986555;28;20046;-73
2022/03/02 04:28:49;;;;;;;31.85;9.93;;;;;;;-3.31;nan;101174.56;5001508;28;20034;-73
2022/03/02 04:31:14;;;;;;;22.35;9.30;;;;;;;-3.37;nan;101168.13;5008474;28;20041;-72
2022/03/02 04:33:39;;;;;;;24.95;10.13;;;;;;;-3.44;nan;101154.88;4997885;28;20022;-72
2022/03/02 04:36:06;;;;;;;24.73;10.25;;;;;;;-3.30;nan;101184.75;5010771;28;20035;-71
2022/03/02 04:38:32;;;;;;;24.17;10.38;;;;;;;-3.50;nan;101160.47;5012661;28;20033;-71
2022/03/02 04:40:57;;;;;;;25.25;10.23;;;;;;;-3.34;nan;101183.34;4995774;28;20045;-72
2022/03/02 04:43:23;;;;;;;25.35;9.65;;;;;;;-3.44;nan;101164.38;5018068;28;20026;-72
2022/03/02 04:45:49;;;;;;;25.42;10.30;;;;;;;-3.32;nan;101178.88;5011008;28;20099;-72
2022/03/02 04:48:15;;;;;;;26.75;10.90;;;;;;;-3.33;nan;101173.84;5007159;28;20120;-72
2022/03/02 04:50:40;;;;;;;28.25;11.25;;;;;;;-3.40;nan;101165.75;4992975;28;20506;-71
2022/03/02 04:53:06;;;;;;;31.60;10.50;;;;;;;-3.35;nan;101181.69;4988058;28;20034;-73
2022/03/02 04:55:31;;;;;;;34.65;11.85;;;;;;;-3.26;nan;101168.09;5005647;28;20031;-72
2022/03/02 04:58:00;;;;;;;24.90;11.00;;;;;;;-3.36;nan;101153.47;5012978;28;20034;-72
2022/03/02 05:00:31;;;;;;;28.40;11.10;;;;;;;-3.42;nan;101155.59;5010244;28;20037;-72
2022/03/02 05:02:58;;;;;;;36.65;12.27;;;;;;;-3.32;nan;101165.19;5002921;28;20042;-70
2022/03/02 05:05:25;;;;;;;34.55;13.85;;;;;;;-3.61;nan;101111.56;5005501;28;20037;-71
2022/03/02 05:07:51;;;;;;;30.52;13.13;;;;;;;-3.31;nan;101167.63;5007766;28;20046;-71
2022/03/02 05:10:19;;;;;;;42.13;13.40;;;;;;;-3.45;nan;101148.09;5009385;28;20499;-72
2022/03/02 05:12:45;;;;;;;36.80;11.48;;;;;;;-3.29;nan;101175.25;4992503;28;20034;-71
2022/03/02 05:15:12;;;;;;;34.25;12.00;;;;;;;-3.33;nan;101158.38;5004640;28;20239;-71
2022/03/02 05:17:39;;;;;;;29.77;12.63;;;;;;;-3.33;nan;101148.91;5005142;28;20056;-70
2022/03/02 05:20:07;;;;;;;31.15;12.10;;;;;;;-3.22;nan;101160.97;4984961;28;20146;-72
2022/03/02 05:22:32;;;;;;;34.72;12.43;;;;;;;-3.18;nan;101158.97;4989244;28;20034;-72
2022/03/02 05:24:58;;;;;;;32.78;13.13;;;;;;;-3.13;nan;101156.91;5003966;28;20061;-72
2022/03/02 05:27:24;;;;;;;31.85;12.52;;;;;;;-3.16;nan;101155.38;5010338;28;20037;-71
2022/03/02 05:29:49;;;;;;;38.30;13.45;;;;;;;-3.13;nan;101165.44;5006546;28;20050;-73
2022/03/02 05:32:15;;;;;;;161.02;42.00;;;;;;;-3.11;nan;101165.31;5004065;28;20566;-72
2022/03/02 05:34:40;;;;;;;111.05;31.20;;;;;;;-3.38;nan;101114.16;5001252;28;20353;-74
2022/03/02 05:37:06;;;;;;;62.63;20.45;;;;;;;-3.13;nan;101159.47;4989505;28;20362;-74
2022/03/02 05:39:31;;;;;;;34.30;14.00;;;;;;;-3.03;nan;101181.00;5005759;28;20038;-73
2022/03/02 05:41:57;;;;;;;32.63;12.80;;;;;;;-3.05;nan;101173.41;5003802;28;20097;-74
2022/03/02 05:44:22;;;;;;;38.83;13.48;;;;;;;-2.99;nan;101172.13;5007540;28;20089;-72
2022/03/02 05:46:48;;;;;;;28.42;12.55;;;;;;;-3.11;nan;101153.28;5005595;28;20121;-72
2022/03/02 05:49:14;;;;;;;34.88;13.73;;;;;;;-3.10;nan;101162.63;4987061;28;20033;-72
2022/03/02 05:51:40;;;;;;;51.53;15.68;;;;;;;-3.00;nan;101176.44;4991058;28;20037;-73
2022/03/02 05:54:08;;;;;;;45.33;17.25;;;;;;;-2.97;nan;101177.94;5008252;28;20038;-73
2022/03/02 05:56:34;;;;;;;43.17;17.10;;;;;;;-3.07;nan;101170.09;4990064;28;20050;-72
2022/03/02 05:59:00;;;;;;;47.65;15.98;;;;;;;-3.01;nan;101186.88;5010049;28;20044;-73
2022/03/02 06:01:25;;;;;;;39.90;14.77;;;;;;;-3.08;nan;101191.66;5012627;28;20558;-72
2022/03/02 06:03:51;;;;;;;40.20;12.50;;;;;;;-3.00;nan;101193.66;4988734;28;20087;-73
2022/03/02 06:06:17;;;;;;;35.33;13.95;;;;;;;-3.07;nan;101174.44;5009850;28;20041;-73
2022/03/02 06:08:43;;;;;;;33.72;13.18;;;;;;;-3.08;nan;101183.13;5007832;28;20054;-74
2022/03/02 06:11:09;;;;;;;42.58;14.10;;;;;;;-3.12;nan;101179.94;4996872;28;20033;-73
2022/03/02 06:13:35;;;;;;;33.88;14.27;;;;;;;-3.00;nan;101194.47;4980013;28;20038;-73
2022/03/02 06:16:01;;;;;;;35.47;14.23;;;;;;;-2.97;nan;101196.00;5002415;28;20042;-74
2022/03/02 06:18:27;;;;;;;29.83;12.13;;;;;;;-3.10;nan;101185.81;5010703;28;20034;-74
2022/03/02 06:20:53;;;;;;;33.30;12.10;;;;;;;-3.00;nan;101196.22;5001392;28;20032;-73
2022/03/02 06:23:21;;;;;;;28.10;11.43;;;;;;;-2.96;nan;101199.41;5010422;28;20044;-73
2022/03/02 06:25:47;;;;;;;34.05;12.57;;;;;;;-2.99;nan;101203.03;5009308;28;20111;-74
2022/03/02 06:28:13;;;;;;;39.97;14.60;;;;;;;-3.12;nan;101177.38;5012794;28;20036;-73
2022/03/02 06:30:38;;;;;;;38.13;13.98;;;;;;;-3.06;nan;101194.13;5012431;28;20045;-72
2022/03/02 06:33:04;;;;;;;33.42;13.32;;;;;;;-3.07;nan;101187.34;5008558;28;20420;-73
2022/03/02 06:35:29;;;;;;;29.88;12.80;;;;;;;-3.06;nan;101194.94;5007173;28;20029;-73
2022/03/02 06:37:55;;;;;;;37.85;12.90;;;;;;;-3.01;nan;101199.75;5012730;28;20596;-73
2022/03/02 06:40:21;;;;;;;33.45;13.50;;;;;;;-3.06;nan;101182.06;5011085;28;20034;-72
2022/03/02 06:43:00;;;;;;;35.17;14.45;;;;;;;-3.02;nan;101187.78;5004025;28;20057;-73
2022/03/02 06:45:47;;;;;;;141.82;33.28;;;;;;;-2.84;nan;101196.69;5006153;28;20038;-74
2022/03/02 06:48:45;;;;;;;51.90;20.40;;;;;;;-2.27;nan;101187.13;5005927;28;20045;-73
2022/03/02 06:51:15;;;;;;;24.85;11.10;;;;;;;-2.26;nan;101177.63;4988804;28;20061;-74
2022/03/02 06:53:43;;;;;;;34.88;13.73;;;;;;;-2.39;nan;101181.19;5010502;28;20034;-76
2022/03/02 06:56:09;;;;;;;38.13;14.47;;;;;;;-2.47;nan;101180.13;5005335;28;20473;-75
2022/03/02 06:58:48;;;;;;;37.90;14.27;;;;;;;-2.45;nan;101199.69;5002931;28;20066;-74
2022/03/02 07:01:17;;;;;;;35.72;13.77;;;;;;;-2.54;nan;101192.69;5008946;28;20030;-71
2022/03/02 07:03:47;;;;;;;39.72;15.50;;;;;;;-2.53;nan;101186.59;5005814;28;20065;-74
2022/03/02 07:06:14;;;;;;;39.35;14.77;;;;;;;-2.46;nan;101199.84;5004848;28;20109;-74
2022/03/02 07:08:43;;;;;;;39.55;14.80;;;;;;;-2.56;nan;101176.53;5008142;28;20867;-73
2022/03/02 07:11:08;;;;;;;30.50;14.32;;;;;;;-2.71;nan;101144.19;5010820;28;20030;-69
2022/03/02 07:13:34;;;;;;;28.38;12.55;;;;;;;-2.53;nan;101154.84;4984547;28;20034;-73
2022/03/02 07:16:00;;;;;;;32.90;13.85;;;;;;;-2.31;nan;101177.16;5001948;28;20099;-72
2022/03/02 07:18:27;;;;;;;30.42;13.48;;;;;;;-2.46;nan;101156.81;4979578;28;20034;-70
2022/03/02 07:20:56;;;;;;;37.45;13.25;;;;;;;-2.26;nan;101178.44;5006022;28;20047;-73
2022/03/02 07:23:24;;;;;;;20.20;9.47;;;;;;;-2.35;nan;101155.94;5008808;28;20045;-74
2022/03/02 07:25:53;;;;;;;29.75;13.45;;;;;;;-2.19;nan;101181.34;5007916;28;20088;-72
2022/03/02 07:28:20;;;;;;;34.78;14.50;;;;;;;-2.21;nan;101168.56;5010359;28;20028;-73
2022/03/02 07:30:46;;;;;;;34.70;14.50;;;;;;;-2.15;nan;101183.56;5010945;28;20034;-73
2022/03/02 07:33:14;;;;;;;44.55;16.45;;;;;;;-2.13;nan;101193.78;4988833;28;20615;-73
2022/03/02 07:35:40;;;;;;;32.17;11.23;;;;;;;-2.03;nan;101206.75;5007270;28;20048;-73
2022/03/02 07:38:07;;;;;;;41.22;16.75;;;;;;;-2.11;nan;101180.72;5012208;28;20030;-74
2022/03/02 07:40:33;;;;;;;44.47;17.38;;;;;;;-2.06;nan;101187.19;5009391;28;20117;-73
2022/03/02 07:42:59;;;;;;;38.72;16.85;;;;;;;-1.99;nan;101190.91;5004632;28;20030;-75
2022/03/02 07:45:25;;;;;;;45.53;17.23;;;;;;;-2.03;nan;101173.22;5000154;28;20096;-75
2022/03/02 07:47:50;;;;;;;42.20;17.50;;;;;;;-1.92;nan;101183.47;5022078;28;20487;-75
2022/03/02 07:50:16;;;;;;;42.65;16.92;;;;;;;-1.93;nan;101169.75;5003794;28;20132;-76
2022/03/02 07:52:52;;;;;;;40.17;15.80;;;;;;;-1.86;nan;101164.09;5016469;28;20081;-75
2022/03/02 07:55:19;;;;;;;35.65;15.18;;;;;;;-1.68;nan;101177.25;5009626;28;20053;-75
2022/03/02 07:57:47;;;;;;;46.42;15.70;;;;;;;-1.81;nan;101157.59;5027209;28;20040;-73
2022/03/02 08:00:13;;;;;;;39.75;15.38;;;;;;;-1.71;nan;101168.00;5015058;28;20034;-74
2022/03/02 08:02:40;;;;;;;47.60;17.88;;;;;;;-1.65;nan;101172.66;5011958;28;20495;-75
2022/03/02 08:05:07;;;;;;;44.35;16.45;;;;;;;-1.51;nan;101192.16;5007671;28;20125;-73
2022/03/02 08:07:34;;;;;;;43.88;17.88;;;;;;;-1.51;nan;101187.00;4992240;28;20510;-73
2022/03/02 08:10:00;;;;;;;45.53;17.67;;;;;;;-1.53;nan;101163.91;4985850;28;20042;-73
2022/03/02 08:12:25;;;;;;;38.92;15.73;;;;;;;-1.47;nan;101166.91;4993710;28;20111;-73
2022/03/02 08:14:52;;;;;;;42.75;14.98;;;;;;;-1.32;nan;101181.13;4979333;28;20125;-73
2022/03/02 08:17:19;;;;;;;41.28;14.88;;;;;;;-1.26;nan;101183.22;4982009;28;20125;-74
2022/03/02 08:19:46;;;;;;;39.83;15.75;;;;;;;-1.35;nan;101171.06;4998059;28;20080;-71
2022/03/02 08:22:20;;;;;;;40.30;15.93;;;;;;;-1.25;nan;101176.28;5007705;28;20038;-74
2022/03/02 08:24:53;;;;;;;39.40;15.35;;;;;;;-1.33;nan;101156.25;4992471;28;20433;-74
2022/03/02 08:27:19;;;;;;;38.97;14.90;;;;;;;-1.07;nan;101185.06;5009493;28;20029;-74
2022/03/02 08:29:52;;;;;;;45.10;15.20;;;;;;;-1.14;nan;101164.09;4996550;28;20095;-74
2022/03/02 08:32:19;;;;;;;44.35;14.77;;;;;;;-0.96;nan;101181.56;4991033;28;20060;-74
2022/03/02 08:34:46;;;;;;;33.25;15.45;;;;;;;-1.19;nan;101137.00;5006172;28;20142;-72
2022/03/02 08:37:12;;;;;;;38.42;16.23;;;;;;;-0.99;nan;101166.31;5007574;28;20045;-75
2022/03/02 08:39:37;;;;;;;36.90;14.13;;;;;;;-0.79;nan;101180.13;4989777;28;20029;-74
2022/03/02 08:42:03;;;;;;;39.53;14.65;;;;;;;-0.83;nan;101166.66;5005858;28;20033;-74
2022/03/02 08:44:29;;;;;;;39.88;15.90;;;;;;;-0.92;nan;101141.59;4990769;28;20054;-74
2022/03/02 08:46:55;;;;;;;39.67;15.88;;;;;;;-0.62;nan;101176.94;5007154;28;20033;-74
2022/03/02 08:49:21;;;;;;;42.10;15.82;;;;;;;-0.68;nan;101160.16;5006899;28;20034;-74
2022/03/02 08:51:49;;;;;;;42.35;16.25;;;;;;;-0.56;nan;101162.63;4990905;28;20115;-74
2022/03/02 08:54:17;;;;;;;44.60;16.35;;;;;;;-0.62;nan;101155.41;5009391;28;20036;-73
2022/03/02 08:56:43;;;;;;;42.60;15.88;;;;;;;-0.92;nan;101098.44;5009430;28;20044;-73
2022/03/02 08:59:13;;;;;;;45.55;17.67;;;;;;;-0.46;nan;101166.06;5007076;28;20029;-75
2022/03/02 09:01:42;;;;;;;47.42;17.83;;;;;;;-0.43;nan;101153.69;5009082;28;20045;-75
2022/03/02 09:04:12;;;;;;;;;;;;;;;-0.18;nan;101168.81;5007762;28;20480;-74
2022/03/02 09:06:38;;;;;;;37.25;15.90;;;;;;;-0.16;nan;101151.38;5004860;28;20238;-75
2022/03/02 09:09:05;;;;;;;33.90;14.95;;;;;;;-0.07;nan;101158.34;4992806;28;20054;-73
2022/03/02 09:11:30;;;;;;;36.28;15.63;;;;;;;-0.05;nan;101162.44;5000445;28;20037;-75
2022/03/02 09:13:56;;;;;;;34.95;15.70;;;;;;;-0.09;nan;101148.09;4996508;28;20096;-75
2022/03/02 09:16:22;;;;;;;35.17;14.57;;;;;;;-0.11;nan;101151.78;4987793;28;20412;-74
2022/03/02 09:18:48;;;;;;;32.08;15.32;;;;;;;0.00;nan;101172.38;4990626;28;20057;-74
2022/03/02 09:21:14;;;;;;;32.35;14.90;;;;;;;0.04;nan;101168.53;5006627;28;20391;-74
2022/03/02 09:23:41;;;;;;;33.85;14.57;;;;;;;0.09;nan;101163.75;5001555;28;20033;-74
2022/03/02 09:26:15;;;;;;;40.40;14.98;;;;;;;0.09;nan;101158.56;5003258;28;20062;-74
2022/03/02 09:28:44;;;;;;;36.50;16.02;;;;;;;0.09;nan;101156.00;5005878;28;20069;-74
2022/03/02 09:31:11;;;;;;;33.92;16.17;;;;;;;0.04;nan;101134.88;5001418;28;20042;-74
2022/03/02 09:33:38;;;;;;;33.63;15.43;;;;;;;0.24;nan;101155.56;4990637;28;20064;-75
2022/03/02 09:36:09;;;;;;;32.67;15.93;;;;;;;0.31;nan;101151.47;5001937;28;20026;-73
2022/03/02 09:38:37;;;;;;;37.05;15.65;;;;;;;0.37;nan;101146.53;4983504;28;20418;-73
2022/03/02 09:41:12;;;;;;;38.78;15.93;;;;;;;0.39;nan;101141.25;4982750;28;20038;-74
2022/03/02 09:43:42;;;;;;;37.25;16.65;;;;;;;0.48;nan;101137.81;4998067;28;20373;-73
2022/03/02 09:46:11;;;;;;;35.80;16.02;;;;;;;0.56;nan;101139.69;5003542;28;20104;-74
2022/03/02 09:48:47;;;;;;;47.63;16.10;;;;;;;0.62;nan;101137.34;5008149;28;20083;-75
2022/03/02 09:51:20;;;;;;;37.00;15.48;;;;;;;0.66;nan;101127.50;4990074;28;20503;-74
2022/03/02 09:53:48;;;;;;;35.72;16.23;;;;;;;0.75;nan;101125.84;5013842;28;20153;-73
2022/03/02 09:56:14;;;;;;;35.13;16.15;;;;;;;0.92;nan;101134.66;4991238;28;20109;-75
2022/03/02 09:58:40;;;;;;;40.03;15.30;;;;;;;1.02;nan;101146.59;5014245;28;20041;-73
2022/03/02 10:01:15;;;;;;;54.15;18.38;;;;;;;1.17;nan;101130.53;4992758;28;20042;-73
2022/03/02 10:03:47;;;;;;;39.65;16.40;;;;;;;1.31;nan;101127.47;5003257;28;20044;-73
2022/03/02 10:06:16;;;;;;;41.95;16.75;;;;;;;1.40;nan;101118.81;4985786;28;20405;-73
2022/03/02 10:08:49;;;;;;;39.40;16.33;;;;;;;1.69;nan;101135.94;5003565;28;20052;-74
2022/03/02 10:11:21;;;;;;;35.10;15.68;;;;;;;1.77;nan;101115.22;4991852;28;20520;-74
2022/03/02 10:13:47;;;;;;;34.22;16.60;;;;;;;2.03;nan;101127.47;5000829;28;20042;-73
2022/03/02 10:16:25;;;;;;;37.28;17.30;;;;;;;2.40;nan;101145.44;4988914;28;20144;-74
2022/03/02 10:19:02;;;;;;;35.00;15.70;;;;;;;2.63;nan;101132.72;5004928;28;20088;-72
2022/03/02 10:21:30;;;;;;;38.45;16.90;;;;;;;2.67;nan;101107.22;4990112;28;20056;-74
2022/03/02 10:24:03;;;;;;;33.90;16.33;;;;;;;2.78;nan;101093.97;4987275;28;20038;-73
2022/03/02 10:26:40;;;;;;;35.80;15.70;;;;;;;2.81;nan;101111.03;4982455;28;20125;-74
2022/03/02 10:29:30;;;;;;;36.65;16.98;;;;;;;3.03;nan;101118.25;4985791;28;20528;-73
2022/03/02 10:32:08;;;;;;;35.97;17.23;;;;;;;3.20;nan;101113.91;5000533;28;20045;-72
2022/03/02 10:34:57;;;;;;;36.70;15.45;;;;;;;3.32;nan;101102.22;5007377;28;20120;-73
2022/03/02 10:37:28;;;;;;;;;;;;;;;3.45;nan;101106.16;4999618;28;20089;-74
2022/03/02 10:40:09;;;;;;;39.10;14.70;;;;;;;3.47;nan;101093.78;4990317;28;19975;-73
2022/03/02 10:42:55;;;;;;;38.30;17.65;;;;;;;3.46;nan;101093.00;4998597;28;20033;-73
2022/03/02 10:45:30;;;;;;;37.40;15.50;;;;;;;3.56;nan;101098.84;5002091;28;20037;-73
2022/03/02 10:48:12;;;;;;;33.38;16.35;;;;;;;3.53;nan;101077.53;5006280;28;20099;-73
2022/03/02 10:50:40;;;;;;;33.03;16.25;;;;;;;3.64;nan;101077.22;4992980;28;20388;-73
2022/03/02 10:53:13;;;;;;;39.25;16.00;;;;;;;3.63;nan;101068.56;5009511;28;20072;-73
2022/03/02 10:55:42;;;;;;;34.90;16.25;;;;;;;3.61;nan;101041.06;5006367;28;20026;-74
2022/03/02 10:58:13;;;;;;;28.35;14.98;;;;;;;3.86;nan;101056.72;5013496;28;20037;-73
2022/03/02 11:00:38;;;;;;;32.67;15.15;;;;;;;3.92;nan;101046.41;5009699;28;20068;-73
2022/03/02 11:03:04;;;;;;;35.10;17.55;;;;;;;4.14;nan;101063.19;5008555;28;20076;-74
2022/03/02 11:05:31;;;;;;;29.80;15.93;;;;;;;4.15;nan;101066.59;5006396;28;20029;-73
2022/03/02 11:07:58;;;;;;;29.08;14.57;;;;;;;3.86;nan;101051.50;5008017;28;20107;-75
2022/03/02 11:10:31;;;;;;;32.97;14.60;;;;;;;3.84;nan;101051.66;4983889;28;20384;-72
2022/03/02 11:12:59;;;;;;;34.63;14.68;;;;;;;3.82;nan;101064.03;5010119;28;20046;-74
2022/03/02 11:15:24;;;;;;;32.13;14.85;;;;;;;3.59;nan;101025.63;5002941;28;20186;-73
2022/03/02 11:17:50;;;;;;;27.92;14.25;;;;;;;3.76;nan;101052.47;5000875;28;20070;-74
2022/03/02 11:20:15;;;;;;;32.00;15.93;;;;;;;3.58;nan;101031.78;5002459;28;20065;-74
2022/03/02 11:22:50;;;;;;;31.95;14.35;;;;;;;3.79;nan;101041.72;4999639;28;20105;-73
2022/03/02 11:25:16;;;;;;;34.63;15.30;;;;;;;3.87;nan;101030.47;5006993;28;20034;-74
2022/03/02 11:27:42;;;;;;;31.20;15.32;;;;;;;4.01;nan;101026.38;4992593;28;20145;-75
2022/03/02 11:30:18;;;;;;;28.73;13.75;;;;;;;4.20;nan;101044.25;5009994;28;20458;-76